sensor_id;sensor_type;location;lat;lon;timestamp;pressure;altitude;pressure_sealevel;temperature;humidity
11672;BME280;5892;43.412;24.612;2022-11-14T00:00:41;101210.88;;;4.56;100.00
11672;BME280;5892;43.412;24.612;2022-11-14T00:03:09;101231.81;;;4.78;100.00
11672;BME280;5892;43.412;24.612;2022-11-14T00:05:38;101235.81;;;4.70;100.00
11672;BME280;5892;43.412;24.612;2022-11-14T00:08:05;101236.81;;;4.64;100.00
11672;BME280;5892;43.412;24.612;2022-11-14T00:10:32;101229.78;;;4.68;100.00
11672;BME280;5892;43.412;24.612;2022-11-14T00:13:01;101223.06;;;4.54;100.00
11672;BME280;5892;43.412;24.612;2022-11-14T00:15:27;101230.53;;;4.63;100.00
11672;BME280;5892;43.412;24.612;2022-11-14T00:17:54;101230.72;;;4.57;100.00
11672;BME280;5892;43.412;24.612;2022-11-14T00:20:21;101235.06;;;4.41;100.00
11672;BME280;5892;43.412;24.612;2022-11-14T00:22:48;101238.38;;;4.43;100.00
11672;BME280;5892;43.412;24.612;2022-11-14T00:25:15;101229.81;;;4.51;100.00
11672;BME280;5892;43.412;24.612;2022-11-14T00:27:42;101227.44;;;4.38;100.00
11672;BME280;5892;43.412;24.612;2022-11-14T00:30:10;101211.75;;;4.23;100.00
11672;BME280;5892;43.412;24.612;2022-11-14T00:32:37;101209.03;;;4.23;100.00
11672;BME280;5892;43.412;24.612;2022-11-14T00:35:05;101229.50;;;4.31;100.00
11672;BME280;5892;43.412;24.612;2022-11-14T00:37:33;101226.78;;;4.31;100.00
11672;BME280;5892;43.412;24.612;2022-11-14T00:40:00;101217.56;;;4.32;100.00
11672;BME280;5892;43.412;24.612;2022-11-14T00:42:27;101226.28;;;4.34;100.00
11672;BME280;5892;43.412;24.612;2022-11-14T00:44:54;101214.78;;;4.27;100.00
11672;BME280;5892;43.412;24.612;2022-11-14T00:47:22;101188.78;;;4.14;100.00
11672;BME280;5892;43.412;24.612;2022-11-14T00:49:49;101218.16;;;4.34;100.00
11672;BME280;5892;43.412;24.612;2022-11-14T00:52:16;101208.59;;;4.32;100.00
11672;BME280;5892;43.412;24.612;2022-11-14T00:54:43;101187.47;;;4.17;100.00
11672;BME280;5892;43.412;24.612;2022-11-14T00:57:09;101194.56;;;4.18;100.00
11672;BME280;5892;43.412;24.612;2022-11-14T00:59:36;101216.06;;;4.24;100.00
11672;BME280;5892;43.412;24.612;2022-11-14T01:02:03;101208.75;;;4.25;100.00
11672;BME280;5892;43.412;24.612;2022-11-14T01:04:32;101203.25;;;4.20;100.00
11672;BME280;5892;43.412;24.612;2022-11-14T01:06:58;101209.59;;;4.25;100.00
11672;BME280;5892;43.412;24.612;2022-11-14T01:09:25;101202.09;;;4.16;100.00
11672;BME280;5892;43.412;24.612;2022-11-14T01:11:52;101198.81;;;4.14;100.00
11672;BME280;5892;43.412;24.612;2022-11-14T01:14:19;101186.50;;;4.06;100.00
11672;BME280;5892;43.412;24.612;2022-11-14T01:16:46;101203.09;;;4.10;100.00
11672;BME280;5892;43.412;24.612;2022-11-14T01:19:13;101209.50;;;4.04;100.00
11672;BME280;5892;43.412;24.612;2022-11-14T01:21:41;101196.59;;;4.11;100.00
11672;BME280;5892;43.412;24.612;2022-11-14T01:24:08;101198.16;;;4.07;100.00
11672;BME280;5892;43.412;24.612;2022-11-14T01:26:35;101175.81;;;4.00;100.00
11672;BME280;5892;43.412;24.612;2022-11-14T01:29:01;101192.16;;;4.05;100.00
11672;BME280;5892;43.412;24.612;2022-11-14T01:31:28;101188.38;;;4.06;100.00
11672;BME280;5892;43.412;24.612;2022-11-14T01:33:55;101183.94;;;4.00;100.00
11672;BME280;5892;43.412;24.612;2022-11-14T01:36:22;101186.19;;;4.03;100.00
11672;BME280;5892;43.412;24.612;2022-11-14T01:38:53;101183.63;;;3.96;100.00
11672;BME280;5892;43.412;24.612;2022-11-14T01:41:20;101192.22;;;3.93;100.00
11672;BME280;5892;43.412;24.612;2022-11-14T01:43:47;101193.03;;;3.94;100.00
11672;BME280;5892;43.412;24.612;2022-11-14T01:46:18;101189.28;;;3.95;100.00
11672;BME280;5892;43.412;24.612;2022-11-14T01:48:50;101191.91;;;3.90;100.00
11672;BME280;5892;43.412;24.612;2022-11-14T01:51:23;101196.72;;;3.88;100.00
11672;BME280;5892;43.412;24.612;2022-11-14T01:53:55;101190.16;;;3.83;100.00
11672;BME280;5892;43.412;24.612;2022-11-14T01:56:25;101186.97;;;3.87;100.00
11672;BME280;5892;43.412;24.612;2022-11-14T01:58:57;101184.50;;;3.85;100.00
11672;BME280;5892;43.412;24.612;2022-11-14T02:01:28;101186.16;;;3.86;100.00
11672;BME280;5892;43.412;24.612;2022-11-14T02:03:56;101184.28;;;3.87;100.00
11672;BME280;5892;43.412;24.612;2022-11-14T02:06:28;101172.50;;;3.81;100.00
11672;BME280;5892;43.412;24.612;2022-11-14T02:08:58;101192.88;;;3.83;100.00
11672;BME280;5892;43.412;24.612;2022-11-14T02:11:28;101164.13;;;3.66;100.00
11672;BME280;5892;43.412;24.612;2022-11-14T02:13:56;101194.94;;;3.76;100.00
11672;BME280;5892;43.412;24.612;2022-11-14T02:16:24;101195.25;;;3.80;100.00
11672;BME280;5892;43.412;24.612;2022-11-14T02:18:51;101189.16;;;3.73;100.00
11672;BME280;5892;43.412;24.612;2022-11-14T02:21:19;101192.03;;;3.66;100.00
11672;BME280;5892;43.412;24.612;2022-11-14T02:23:46;101189.91;;;3.68;100.00
11672;BME280;5892;43.412;24.612;2022-11-14T02:26:16;101181.66;;;3.63;100.00
11672;BME280;5892;43.412;24.612;2022-11-14T02:28:44;101164.91;;;3.50;100.00
11672;BME280;5892;43.412;24.612;2022-11-14T02:31:11;101190.03;;;3.62;100.00
11672;BME280;5892;43.412;24.612;2022-11-14T02:33:39;101190.88;;;3.62;100.00
11672;BME280;5892;43.412;24.612;2022-11-14T02:36:06;101182.59;;;3.40;100.00
11672;BME280;5892;43.412;24.612;2022-11-14T02:38:35;101170.38;;;3.38;100.00
11672;BME280;5892;43.412;24.612;2022-11-14T02:41:02;101179.41;;;3.44;100.00
11672;BME280;5892;43.412;24.612;2022-11-14T02:43:29;101188.00;;;3.40;100.00
11672;BME280;5892;43.412;24.612;2022-11-14T02:45:56;101187.31;;;3.45;100.00
11672;BME280;5892;43.412;24.612;2022-11-14T02:48:23;101161.44;;;3.26;100.00
11672;BME280;5892;43.412;24.612;2022-11-14T02:50:50;101183.81;;;3.33;100.00
11672;BME280;5892;43.412;24.612;2022-11-14T02:53:16;101155.59;;;3.17;100.00
11672;BME280;5892;43.412;24.612;2022-11-14T02:55:45;101188.00;;;3.40;100.00
11672;BME280;5892;43.412;24.612;2022-11-14T02:58:11;101189.03;;;3.51;100.00
11672;BME280;5892;43.412;24.612;2022-11-14T03:00:38;101181.47;;;3.53;100.00
11672;BME280;5892;43.412;24.612;2022-11-14T03:03:05;101179.00;;;3.52;100.00
11672;BME280;5892;43.412;24.612;2022-11-14T03:05:32;101187.41;;;3.50;100.00
11672;BME280;5892;43.412;24.612;2022-11-14T03:07:59;101189.84;;;3.52;100.00
11672;BME280;5892;43.412;24.612;2022-11-14T03:10:26;101167.06;;;3.36;100.00
11672;BME280;5892;43.412;24.612;2022-11-14T03:12:55;101191.63;;;3.46;100.00
11672;BME280;5892;43.412;24.612;2022-11-14T03:15:22;101190.69;;;3.52;100.00
11672;BME280;5892;43.412;24.612;2022-11-14T03:17:49;101197.94;;;3.63;100.00
11672;BME280;5892;43.412;24.612;2022-11-14T03:20:17;101216.53;;;3.71;100.00
11672;BME280;5892;43.412;24.612;2022-11-14T03:22:44;101187.78;;;3.70;100.00
11672;BME280;5892;43.412;24.612;2022-11-14T03:25:10;101198.56;;;3.82;100.00
11672;BME280;5892;43.412;24.612;2022-11-14T03:27:37;101197.22;;;3.84;100.00
11672;BME280;5892;43.412;24.612;2022-11-14T03:30:07;101208.25;;;3.95;100.00
11672;BME280;5892;43.412;24.612;2022-11-14T03:32:34;101197.88;;;3.75;100.00
11672;BME280;5892;43.412;24.612;2022-11-14T03:35:01;101172.16;;;3.61;100.00
11672;BME280;5892;43.412;24.612;2022-11-14T03:37:28;101198.22;;;3.78;100.00
11672;BME280;5892;43.412;24.612;2022-11-14T03:39:54;101190.75;;;3.86;100.00
11672;BME280;5892;43.412;24.612;2022-11-14T03:42:21;101177.97;;;3.98;100.00
11672;BME280;5892;43.412;24.612;2022-11-14T03:44:48;101194.84;;;3.88;100.00
11672;BME280;5892;43.412;24.612;2022-11-14T03:47:16;101173.81;;;3.78;100.00
11672;BME280;5892;43.412;24.612;2022-11-14T03:49:43;101181.56;;;3.87;100.00
11672;BME280;5892;43.412;24.612;2022-11-14T03:52:10;101187.31;;;3.90;100.00
11672;BME280;5892;43.412;24.612;2022-11-14T03:54:37;101176.69;;;3.89;100.00
11672;BME280;5892;43.412;24.612;2022-11-14T03:57:04;101179.56;;;3.99;100.00
11672;BME280;5892;43.412;24.612;2022-11-14T03:59:31;101189.00;;;3.79;100.00
11672;BME280;5892;43.412;24.612;2022-11-14T04:01:58;101188.00;;;3.69;100.00
11672;BME280;5892;43.412;24.612;2022-11-14T04:04:26;101170.88;;;3.52;100.00
11672;BME280;5892;43.412;24.612;2022-11-14T04:06:53;101186.31;;;3.79;100.00
11672;BME280;5892;43.412;24.612;2022-11-14T04:09:20;101184.81;;;3.89;100.00
11672;BME280;5892;43.412;24.612;2022-11-14T04:11:47;101164.84;;;3.78;100.00
11672;BME280;5892;43.412;24.612;2022-11-14T04:14:14;101185.81;;;3.99;100.00
11672;BME280;5892;43.412;24.612;2022-11-14T04:16:40;101191.84;;;4.01;100.00
11672;BME280;5892;43.412;24.612;2022-11-14T04:19:07;101187.63;;;4.10;100.00
11672;BME280;5892;43.412;24.612;2022-11-14T04:21:36;101178.13;;;4.08;100.00
11672;BME280;5892;43.412;24.612;2022-11-14T04:24:03;101179.59;;;4.15;100.00
11672;BME280;5892;43.412;24.612;2022-11-14T04:26:30;101181.56;;;4.20;100.00
11672;BME280;5892;43.412;24.612;2022-11-14T04:28:56;101184.19;;;4.32;100.00
11672;BME280;5892;43.412;24.612;2022-11-14T04:31:23;101180.25;;;4.39;100.00
11672;BME280;5892;43.412;24.612;2022-11-14T04:33:50;101190.81;;;4.41;100.00
11672;BME280;5892;43.412;24.612;2022-11-14T04:36:17;101186.81;;;4.43;100.00
11672;BME280;5892;43.412;24.612;2022-11-14T04:38:45;101191.81;;;4.35;100.00
11672;BME280;5892;43.412;24.612;2022-11-14T04:41:12;101191.75;;;4.30;100.00
11672;BME280;5892;43.412;24.612;2022-11-14T04:43:39;101170.78;;;4.25;100.00
11672;BME280;5892;43.412;24.612;2022-11-14T04:46:06;101188.78;;;4.31;100.00
11672;BME280;5892;43.412;24.612;2022-11-14T04:48:33;101198.72;;;4.42;100.00
11672;BME280;5892;43.412;24.612;2022-11-14T04:51:00;101173.00;;;4.28;100.00
11672;BME280;5892;43.412;24.612;2022-11-14T04:53:26;101179.28;;;4.29;100.00
11672;BME280;5892;43.412;24.612;2022-11-14T04:55:55;101172.03;;;4.34;100.00
11672;BME280;5892;43.412;24.612;2022-11-14T04:58:21;101151.78;;;4.25;100.00
11672;BME280;5892;43.412;24.612;2022-11-14T05:00:48;101203.56;;;4.57;100.00
11672;BME280;5892;43.412;24.612;2022-11-14T05:03:15;101204.69;;;4.61;100.00
11672;BME280;5892;43.412;24.612;2022-11-14T05:05:42;101183.09;;;4.49;100.00
11672;BME280;5892;43.412;24.612;2022-11-14T05:08:09;101211.44;;;4.75;100.00
11672;BME280;5892;43.412;24.612;2022-11-14T05:10:36;101197.53;;;4.72;100.00
11672;BME280;5892;43.412;24.612;2022-11-14T05:13:04;101211.00;;;4.83;100.00
11672;BME280;5892;43.412;24.612;2022-11-14T05:15:31;101199.91;;;4.85;100.00
11672;BME280;5892;43.412;24.612;2022-11-14T05:17:57;101204.06;;;4.92;100.00
11672;BME280;5892;43.412;24.612;2022-11-14T05:20:24;101194.59;;;4.95;100.00
11672;BME280;5892;43.412;24.612;2022-11-14T05:22:52;101202.63;;;5.06;100.00
11672;BME280;5892;43.412;24.612;2022-11-14T05:25:19;101209.19;;;5.10;100.00
11672;BME280;5892;43.412;24.612;2022-11-14T05:27:46;101209.56;;;5.19;100.00
11672;BME280;5892;43.412;24.612;2022-11-14T05:30:15;101209.03;;;5.17;100.00
11672;BME280;5892;43.412;24.612;2022-11-14T05:32:42;101200.41;;;5.25;100.00
11672;BME280;5892;43.412;24.612;2022-11-14T05:35:09;101197.94;;;5.24;100.00
11672;BME280;5892;43.412;24.612;2022-11-14T05:37:36;101197.09;;;5.18;100.00
11672;BME280;5892;43.412;24.612;2022-11-14T05:40:03;101208.00;;;5.23;100.00
11672;BME280;5892;43.412;24.612;2022-11-14T05:42:30;101209.16;;;5.27;100.00
11672;BME280;5892;43.412;24.612;2022-11-14T05:44:57;101216.22;;;5.28;100.00
11672;BME280;5892;43.412;24.612;2022-11-14T05:47:26;101214.94;;;5.36;100.00
11672;BME280;5892;43.412;24.612;2022-11-14T05:49:52;101217.41;;;5.37;100.00
11672;BME280;5892;43.412;24.612;2022-11-14T05:52:19;101217.41;;;5.37;100.00
11672;BME280;5892;43.412;24.612;2022-11-14T05:54:46;101210.44;;;5.46;100.00
11672;BME280;5892;43.412;24.612;2022-11-14T05:57:13;101223.47;;;5.44;100.00
11672;BME280;5892;43.412;24.612;2022-11-14T05:59:40;101218.09;;;5.49;100.00
11672;BME280;5892;43.412;24.612;2022-11-14T06:02:06;101207.47;;;5.48;100.00
11672;BME280;5892;43.412;24.612;2022-11-14T06:04:35;101207.34;;;5.60;100.00
11672;BME280;5892;43.412;24.612;2022-11-14T06:07:02;101209.50;;;5.58;100.00
11672;BME280;5892;43.412;24.612;2022-11-14T06:09:29;101214.56;;;5.49;100.00
11672;BME280;5892;43.412;24.612;2022-11-14T06:11:56;101202.94;;;5.53;100.00
11672;BME280;5892;43.412;24.612;2022-11-14T06:14:22;101207.94;;;5.67;100.00
11672;BME280;5892;43.412;24.612;2022-11-14T06:16:49;101207.16;;;5.71;100.00
11672;BME280;5892;43.412;24.612;2022-11-14T06:19:16;101211.34;;;5.79;100.00
11672;BME280;5892;43.412;24.612;2022-11-14T06:21:44;101198.25;;;5.76;100.00
11672;BME280;5892;43.412;24.612;2022-11-14T06:24:11;101204.44;;;5.93;100.00
11672;BME280;5892;43.412;24.612;2022-11-14T06:26:38;101210.50;;;6.00;100.00
11672;BME280;5892;43.412;24.612;2022-11-14T06:29:05;101190.78;;;5.88;100.00
11672;BME280;5892;43.412;24.612;2022-11-14T06:31:32;101215.41;;;6.03;100.00
11672;BME280;5892;43.412;24.612;2022-11-14T06:33:59;101210.53;;;6.05;100.00
11672;BME280;5892;43.412;24.612;2022-11-14T06:36:25;101208.47;;;6.17;100.00
11672;BME280;5892;43.412;24.612;2022-11-14T06:38:54;101197.19;;;6.04;100.00
11672;BME280;5892;43.412;24.612;2022-11-14T06:41:21;101213.38;;;6.20;100.00
11672;BME280;5892;43.412;24.612;2022-11-14T06:43:49;101218.13;;;6.35;100.00
11672;BME280;5892;43.412;24.612;2022-11-14T06:46:19;101219.00;;;6.41;100.00
11672;BME280;5892;43.412;24.612;2022-11-14T06:48:47;101229.88;;;6.41;100.00
11672;BME280;5892;43.412;24.612;2022-11-14T06:51:15;101225.88;;;6.48;100.00
11672;BME280;5892;43.412;24.612;2022-11-14T06:53:43;101228.34;;;6.55;100.00
11672;BME280;5892;43.412;24.612;2022-11-14T06:56:13;101228.31;;;6.50;100.00
11672;BME280;5892;43.412;24.612;2022-11-14T06:58:42;101221.28;;;6.54;100.00
11672;BME280;5892;43.412;24.612;2022-11-14T07:01:11;101225.16;;;6.63;100.00
11672;BME280;5892;43.412;24.612;2022-11-14T07:03:38;101226.25;;;6.67;100.00
11672;BME280;5892;43.412;24.612;2022-11-14T07:06:05;101201.16;;;6.60;100.00
11672;BME280;5892;43.412;24.612;2022-11-14T07:08:33;101188.63;;;6.59;100.00
11672;BME280;5892;43.412;24.612;2022-11-14T07:11:01;101226.94;;;6.84;100.00
11672;BME280;5892;43.412;24.612;2022-11-14T07:13:30;101224.19;;;6.84;100.00
11672;BME280;5892;43.412;24.612;2022-11-14T07:15:57;101216.63;;;6.96;100.00
11672;BME280;5892;43.412;24.612;2022-11-14T07:18:24;101215.59;;;7.07;100.00
11672;BME280;5892;43.412;24.612;2022-11-14T07:20:56;101210.22;;;7.22;100.00
11672;BME280;5892;43.412;24.612;2022-11-14T07:23:23;101210.50;;;7.21;100.00
11672;BME280;5892;43.412;24.612;2022-11-14T07:25:50;101209.72;;;7.31;100.00
11672;BME280;5892;43.412;24.612;2022-11-14T07:28:17;101201.56;;;7.41;100.00
11672;BME280;5892;43.412;24.612;2022-11-14T07:30:45;101218.50;;;7.48;100.00
11672;BME280;5892;43.412;24.612;2022-11-14T07:33:12;101212.66;;;7.19;100.00
11672;BME280;5892;43.412;24.612;2022-11-14T07:35:39;101206.09;;;7.10;100.00
11672;BME280;5892;43.412;24.612;2022-11-14T07:38:06;101203.66;;;7.18;100.00
11672;BME280;5892;43.412;24.612;2022-11-14T07:40:32;101216.78;;;7.27;100.00
11672;BME280;5892;43.412;24.612;2022-11-14T07:43:00;101210.47;;;7.16;100.00
11672;BME280;5892;43.412;24.612;2022-11-14T07:45:27;101212.38;;;7.15;100.00
11672;BME280;5892;43.412;24.612;2022-11-14T07:47:57;101215.97;;;7.26;100.00
11672;BME280;5892;43.412;24.612;2022-11-14T07:50:25;101227.16;;;7.35;100.00
11672;BME280;5892;43.412;24.612;2022-11-14T07:52:52;101211.66;;;7.45;100.00
11672;BME280;5892;43.412;24.612;2022-11-14T07:55:20;101223.97;;;7.48;100.00
11672;BME280;5892;43.412;24.612;2022-11-14T07:57:50;101217.75;;;7.68;100.00
11672;BME280;5892;43.412;24.612;2022-11-14T08:00:18;101206.88;;;7.88;100.00
11672;BME280;5892;43.412;24.612;2022-11-14T08:02:45;101201.16;;;7.89;100.00
11672;BME280;5892;43.412;24.612;2022-11-14T08:05:13;101221.63;;;8.02;100.00
11672;BME280;5892;43.412;24.612;2022-11-14T08:07:40;101218.06;;;8.17;100.00
11672;BME280;5892;43.412;24.612;2022-11-14T08:10:08;101212.94;;;8.35;100.00
11672;BME280;5892;43.412;24.612;2022-11-14T08:12:35;101224.66;;;8.56;100.00
11672;BME280;5892;43.412;24.612;2022-11-14T08:15:04;101220.84;;;8.62;100.00
11672;BME280;5892;43.412;24.612;2022-11-14T08:17:31;101223.56;;;8.62;100.00
11672;BME280;5892;43.412;24.612;2022-11-14T08:19:58;101229.03;;;8.72;100.00
11672;BME280;5892;43.412;24.612;2022-11-14T08:22:27;101223.00;;;8.65;100.00
11672;BME280;5892;43.412;24.612;2022-11-14T08:24:55;101222.97;;;8.85;100.00
11672;BME280;5892;43.412;24.612;2022-11-14T08:27:23;101219.69;;;8.93;100.00
11672;BME280;5892;43.412;24.612;2022-11-14T08:29:50;101220.78;;;8.87;100.00
11672;BME280;5892;43.412;24.612;2022-11-14T08:32:16;101221.31;;;8.95;100.00
11672;BME280;5892;43.412;24.612;2022-11-14T08:34:43;101202.47;;;8.88;100.00
11672;BME280;5892;43.412;24.612;2022-11-14T08:37:10;101222.66;;;9.02;100.00
11672;BME280;5892;43.412;24.612;2022-11-14T08:39:38;101210.94;;;8.86;100.00
11672;BME280;5892;43.412;24.612;2022-11-14T08:42:05;101174.41;;;8.57;100.00
11672;BME280;5892;43.412;24.612;2022-11-14T08:44:32;101225.44;;;8.82;100.00
11672;BME280;5892;43.412;24.612;2022-11-14T08:46:59;101218.91;;;8.68;100.00
11672;BME280;5892;43.412;24.612;2022-11-14T08:49:26;101198.44;;;8.50;100.00
11672;BME280;5892;43.412;24.612;2022-11-14T08:51:53;101178.78;;;8.33;100.00
11672;BME280;5892;43.412;24.612;2022-11-14T08:54:20;101199.22;;;8.71;100.00
11672;BME280;5892;43.412;24.612;2022-11-14T08:56:49;101203.28;;;8.93;100.00
11672;BME280;5892;43.412;24.612;2022-11-14T08:59:15;101183.06;;;8.95;100.00
11672;BME280;5892;43.412;24.612;2022-11-14T09:01:42;101196.63;;;9.20;100.00
11672;BME280;5892;43.412;24.612;2022-11-14T09:04:09;101197.66;;;9.34;100.00
11672;BME280;5892;43.412;24.612;2022-11-14T09:06:36;101192.25;;;9.19;100.00
11672;BME280;5892;43.412;24.612;2022-11-14T09:09:03;101195.50;;;9.31;100.00
11672;BME280;5892;43.412;24.612;2022-11-14T09:11:30;101187.78;;;9.38;100.00
11672;BME280;5892;43.412;24.612;2022-11-14T09:13:58;101192.94;;;9.45;100.00
11672;BME280;5892;43.412;24.612;2022-11-14T09:16:27;101196.47;;;9.50;100.00
11672;BME280;5892;43.412;24.612;2022-11-14T09:18:53;101177.59;;;9.49;100.00
11672;BME280;5892;43.412;24.612;2022-11-14T09:21:20;101193.16;;;9.53;100.00
11672;BME280;5892;43.412;24.612;2022-11-14T09:23:48;101194.84;;;9.49;100.00
11672;BME280;5892;43.412;24.612;2022-11-14T09:26:15;101190.72;;;9.57;100.00
11672;BME280;5892;43.412;24.612;2022-11-14T09:28:43;101186.50;;;9.25;100.00
11672;BME280;5892;43.412;24.612;2022-11-14T09:31:12;101180.78;;;9.12;100.00
11672;BME280;5892;43.412;24.612;2022-11-14T09:33:39;101177.59;;;8.89;100.00
11672;BME280;5892;43.412;24.612;2022-11-14T09:36:09;101174.28;;;9.03;100.00
11672;BME280;5892;43.412;24.612;2022-11-14T09:38:40;101170.41;;;9.14;100.00
11672;BME280;5892;43.412;24.612;2022-11-14T09:41:18;101158.41;;;9.10;100.00
11672;BME280;5892;43.412;24.612;2022-11-14T09:44:10;101162.19;;;9.19;100.00
11672;BME280;5892;43.412;24.612;2022-11-14T09:46:42;101151.22;;;9.19;100.00
11672;BME280;5892;43.412;24.612;2022-11-14T09:49:19;101162.66;;;9.36;100.00
11672;BME280;5892;43.412;24.612;2022-11-14T09:51:53;101163.66;;;9.50;100.00
11672;BME280;5892;43.412;24.612;2022-11-14T09:54:24;101166.34;;;9.55;100.00
11672;BME280;5892;43.412;24.612;2022-11-14T09:56:52;101153.63;;;9.74;100.00
11672;BME280;5892;43.412;24.612;2022-11-14T09:59:19;101153.91;;;9.78;100.00
11672;BME280;5892;43.412;24.612;2022-11-14T10:01:53;101151.94;;;9.84;100.00
11672;BME280;5892;43.412;24.612;2022-11-14T10:04:27;101153.91;;;9.29;100.00
11672;BME280;5892;43.412;24.612;2022-11-14T10:07:02;101134.09;;;9.52;100.00
11672;BME280;5892;43.412;24.612;2022-11-14T10:09:46;101140.09;;;9.54;100.00
11672;BME280;5892;43.412;24.612;2022-11-14T10:12:20;101127.47;;;9.58;100.00
11672;BME280;5892;43.412;24.612;2022-11-14T10:15:11;101132.28;;;9.76;100.00
11672;BME280;5892;43.412;24.612;2022-11-14T10:18:01;101139.28;;;9.93;100.00
11672;BME280;5892;43.412;24.612;2022-11-14T10:20:35;101126.66;;;9.97;100.00
11672;BME280;5892;43.412;24.612;2022-11-14T10:23:16;101124.97;;;10.01;100.00
11672;BME280;5892;43.412;24.612;2022-11-14T10:25:54;101122.47;;;10.04;100.00
11672;BME280;5892;43.412;24.612;2022-11-14T10:28:56;101122.94;;;10.16;100.00
11672;BME280;5892;43.412;24.612;2022-11-14T10:31:38;101112.81;;;10.17;100.00
11672;BME280;5892;43.412;24.612;2022-11-14T10:34:13;101115.38;;;10.32;100.00
11672;BME280;5892;43.412;24.612;2022-11-14T10:36:53;101098.94;;;10.32;100.00
11672;BME280;5892;43.412;24.612;2022-11-14T10:39:25;101115.22;;;10.47;100.00
11672;BME280;5892;43.412;24.612;2022-11-14T10:41:58;101116.47;;;10.36;100.00
11672;BME280;5892;43.412;24.612;2022-11-14T10:44:30;101118.19;;;10.27;100.00
11672;BME280;5892;43.412;24.612;2022-11-14T10:47:01;101088.97;;;10.17;100.00
11672;BME280;5892;43.412;24.612;2022-11-14T10:49:33;101112.66;;;10.32;100.00
11672;BME280;5892;43.412;24.612;2022-11-14T10:52:05;101102.78;;;10.31;100.00
11672;BME280;5892;43.412;24.612;2022-11-14T10:54:38;101096.31;;;10.22;100.00
11672;BME280;5892;43.412;24.612;2022-11-14T10:57:14;101096.91;;;10.19;100.00
11672;BME280;5892;43.412;24.612;2022-11-14T10:59:41;101055.22;;;9.93;100.00
11672;BME280;5892;43.412;24.612;2022-11-14T11:02:08;101097.75;;;10.14;100.00
11672;BME280;5892;43.412;24.612;2022-11-14T11:04:38;101095.00;;;10.14;100.00
11672;BME280;5892;43.412;24.612;2022-11-14T11:07:22;101096.84;;;10.24;100.00
11672;BME280;5892;43.412;24.612;2022-11-14T11:10:19;101088.31;;;10.31;100.00
11672;BME280;5892;43.412;24.612;2022-11-14T11:13:03;101083.66;;;10.26;100.00
11672;BME280;5892;43.412;24.612;2022-11-14T11:15:31;101075.94;;;10.33;100.00
11672;BME280;5892;43.412;24.612;2022-11-14T11:18:22;101085.97;;;10.43;100.00
11672;BME280;5892;43.412;24.612;2022-11-14T11:21:02;101088.13;;;10.46;100.00
11672;BME280;5892;43.412;24.612;2022-11-14T11:23:30;101085.97;;;10.43;100.00
11672;BME280;5892;43.412;24.612;2022-11-14T11:26:01;101081.34;;;10.38;100.00
11672;BME280;5892;43.412;24.612;2022-11-14T11:28:32;101084.09;;;10.38;100.00
11672;BME280;5892;43.412;24.612;2022-11-14T11:31:00;101070.53;;;10.52;100.00
11672;BME280;5892;43.412;24.612;2022-11-14T11:33:29;101055.19;;;10.51;100.00
11672;BME280;5892;43.412;24.612;2022-11-14T11:35:58;101052.91;;;10.58;100.00
11672;BME280;5892;43.412;24.612;2022-11-14T11:38:29;101073.38;;;10.66;100.00
11672;BME280;5892;43.412;24.612;2022-11-14T11:41:03;101064.69;;;10.58;100.00
11672;BME280;5892;43.412;24.612;2022-11-14T11:43:35;101070.94;;;10.64;100.00
11672;BME280;5892;43.412;24.612;2022-11-14T11:46:08;101062.56;;;10.74;100.00
11672;BME280;5892;43.412;24.612;2022-11-14T11:48:38;101036.41;;;10.39;100.00
11672;BME280;5892;43.412;24.612;2022-11-14T11:51:08;101069.28;;;10.63;100.00
11672;BME280;5892;43.412;24.612;2022-11-14T11:53:42;101048.25;;;10.35;100.00
11672;BME280;5892;43.412;24.612;2022-11-14T11:56:12;101079.59;;;10.47;100.00
11672;BME280;5892;43.412;24.612;2022-11-14T11:58:44;101064.25;;;10.51;100.00
11672;BME280;5892;43.412;24.612;2022-11-14T12:01:13;101060.25;;;10.39;100.00
11672;BME280;5892;43.412;24.612;2022-11-14T12:03:42;101056.00;;;10.28;100.00
11672;BME280;5892;43.412;24.612;2022-11-14T12:06:14;101058.56;;;10.19;100.00
11672;BME280;5892;43.412;24.612;2022-11-14T12:08:49;101064.09;;;10.09;100.00
11672;BME280;5892;43.412;24.612;2022-11-14T12:11:22;101053.75;;;10.01;100.00
11672;BME280;5892;43.412;24.612;2022-11-14T12:14:03;101052.63;;;10.07;100.00
11672;BME280;5892;43.412;24.612;2022-11-14T12:16:53;101052.53;;;10.17;100.00
11672;BME280;5892;43.412;24.612;2022-11-14T12:19:33;101033.41;;;10.12;100.00
11672;BME280;5892;43.412;24.612;2022-11-14T12:28:17;101033.25;;;10.27;100.00
11672;BME280;5892;43.412;24.612;2022-11-14T12:30:49;101036.81;;;10.28;100.00
11672;BME280;5892;43.412;24.612;2022-11-14T12:33:22;101034.31;;;10.31;100.00
11672;BME280;5892;43.412;24.612;2022-11-14T12:35:52;101037.31;;;10.35;100.00
11672;BME280;5892;43.412;24.612;2022-11-14T12:38:21;101036.19;;;10.36;100.00
11672;BME280;5892;43.412;24.612;2022-11-14T12:40:50;101034.72;;;10.19;100.00
11672;BME280;5892;43.412;24.612;2022-11-14T12:43:34;101042.94;;;10.19;100.00
11672;BME280;5892;43.412;24.612;2022-11-14T12:46:03;101017.56;;;10.09;100.00
11672;BME280;5892;43.412;24.612;2022-11-14T12:48:35;101034.91;;;10.28;100.00
11672;BME280;5892;43.412;24.612;2022-11-14T12:51:04;101032.97;;;10.29;100.00
11672;BME280;5892;43.412;24.612;2022-11-14T12:53:39;101033.59;;;10.20;100.00
11672;BME280;5892;43.412;24.612;2022-11-14T12:59:36;101035.88;;;10.37;100.00
11672;BME280;5892;43.412;24.612;2022-11-14T13:02:34;101043.81;;;10.39;100.00
11672;BME280;5892;43.412;24.612;2022-11-14T13:05:22;101046.72;;;10.24;100.00
11672;BME280;5892;43.412;24.612;2022-11-14T13:08:04;101040.06;;;10.01;100.00